sensor_id;sensor_type;location;lat;lon;timestamp;P1;durP1;ratioP1;P2;durP2;ratioP2
57667;SDS011;43499;52.366;12.912;2022-12-18T00:01:01;118.70;;;28.42;;
57667;SDS011;43499;52.366;12.912;2022-12-18T00:02:06;112.15;;;29.30;;
57667;SDS011;43499;52.366;12.912;2022-12-18T00:03:08;114.30;;;27.90;;
57667;SDS011;43499;52.366;12.912;2022-12-18T00:04:14;101.80;;;24.17;;
57667;SDS011;43499;52.366;12.912;2022-12-18T00:05:20;61.22;;;20.60;;
57667;SDS011;43499;52.366;12.912;2022-12-18T00:06:22;123.15;;;28.23;;
57667;SDS011;43499;52.366;12.912;2022-12-18T00:07:24;123.30;;;30.10;;
57667;SDS011;43499;52.366;12.912;2022-12-18T00:08:25;136.77;;;29.48;;
57667;SDS011;43499;52.366;12.912;2022-12-18T00:09:26;93.65;;;21.58;;
57667;SDS011;43499;52.366;12.912;2022-12-18T00:10:28;96.90;;;23.50;;
57667;SDS011;43499;52.366;12.912;2022-12-18T00:11:29;107.70;;;28.50;;
57667;SDS011;43499;52.366;12.912;2022-12-18T00:12:31;89.35;;;22.48;;
57667;SDS011;43499;52.366;12.912;2022-12-18T00:13:32;120.15;;;29.17;;
57667;SDS011;43499;52.366;12.912;2022-12-18T00:14:33;124.50;;;30.10;;
57667;SDS011;43499;52.366;12.912;2022-12-18T00:15:35;103.28;;;25.65;;
57667;SDS011;43499;52.366;12.912;2022-12-18T00:16:37;120.55;;;29.30;;
57667;SDS011;43499;52.366;12.912;2022-12-18T00:17:38;136.35;;;32.40;;
57667;SDS011;43499;52.366;12.912;2022-12-18T00:18:39;116.30;;;28.83;;
57667;SDS011;43499;52.366;12.912;2022-12-18T00:19:40;94.35;;;24.20;;
57667;SDS011;43499;52.366;12.912;2022-12-18T00:20:41;122.88;;;30.10;;
57667;SDS011;43499;52.366;12.912;2022-12-18T00:21:43;126.00;;;28.77;;
57667;SDS011;43499;52.366;12.912;2022-12-18T00:22:44;118.68;;;28.40;;
57667;SDS011;43499;52.366;12.912;2022-12-18T00:23:45;115.78;;;27.88;;
57667;SDS011;43499;52.366;12.912;2022-12-18T00:24:48;119.97;;;27.30;;
57667;SDS011;43499;52.366;12.912;2022-12-18T00:25:49;113.05;;;31.40;;
57667;SDS011;43499;52.366;12.912;2022-12-18T00:26:50;117.78;;;27.33;;
57667;SDS011;43499;52.366;12.912;2022-12-18T00:27:51;131.52;;;30.95;;
57667;SDS011;43499;52.366;12.912;2022-12-18T00:28:52;115.47;;;28.92;;
57667;SDS011;43499;52.366;12.912;2022-12-18T00:29:54;115.65;;;28.65;;
57667;SDS011;43499;52.366;12.912;2022-12-18T00:31:01;110.05;;;25.08;;
57667;SDS011;43499;52.366;12.912;2022-12-18T00:32:03;116.80;;;29.60;;
57667;SDS011;43499;52.366;12.912;2022-12-18T00:33:04;111.28;;;28.85;;
57667;SDS011;43499;52.366;12.912;2022-12-18T00:34:05;111.95;;;28.00;;
57667;SDS011;43499;52.366;12.912;2022-12-18T00:35:06;122.00;;;27.17;;
57667;SDS011;43499;52.366;12.912;2022-12-18T00:36:12;91.20;;;23.20;;
57667;SDS011;43499;52.366;12.912;2022-12-18T00:37:14;93.20;;;23.85;;
57667;SDS011;43499;52.366;12.912;2022-12-18T00:38:15;102.00;;;26.83;;
57667;SDS011;43499;52.366;12.912;2022-12-18T00:39:18;118.30;;;28.63;;
57667;SDS011;43499;52.366;12.912;2022-12-18T00:40:19;103.53;;;26.33;;
57667;SDS011;43499;52.366;12.912;2022-12-18T00:41:21;106.38;;;26.63;;
57667;SDS011;43499;52.366;12.912;2022-12-18T00:42:42;111.32;;;27.88;;
57667;SDS011;43499;52.366;12.912;2022-12-18T00:43:58;119.13;;;30.42;;
57667;SDS011;43499;52.366;12.912;2022-12-18T00:44:59;122.72;;;31.95;;
57667;SDS011;43499;52.366;12.912;2022-12-18T00:46:00;126.85;;;32.20;;
57667;SDS011;43499;52.366;12.912;2022-12-18T00:47:01;134.02;;;30.10;;
57667;SDS011;43499;52.366;12.912;2022-12-18T00:48:02;116.15;;;27.80;;
57667;SDS011;43499;52.366;12.912;2022-12-18T00:49:04;115.45;;;29.30;;
57667;SDS011;43499;52.366;12.912;2022-12-18T00:50:05;123.57;;;29.48;;
57667;SDS011;43499;52.366;12.912;2022-12-18T00:51:06;111.72;;;30.75;;
57667;SDS011;43499;52.366;12.912;2022-12-18T00:52:09;135.75;;;32.88;;
57667;SDS011;43499;52.366;12.912;2022-12-18T00:53:10;120.47;;;31.35;;
57667;SDS011;43499;52.366;12.912;2022-12-18T00:54:11;129.05;;;30.50;;
57667;SDS011;43499;52.366;12.912;2022-12-18T00:55:13;153.85;;;35.17;;
57667;SDS011;43499;52.366;12.912;2022-12-18T00:56:14;121.10;;;28.38;;
57667;SDS011;43499;52.366;12.912;2022-12-18T00:57:15;131.77;;;31.00;;
57667;SDS011;43499;52.366;12.912;2022-12-18T00:58:17;138.93;;;32.08;;
57667;SDS011;43499;52.366;12.912;2022-12-18T00:59:18;125.35;;;30.75;;
57667;SDS011;43499;52.366;12.912;2022-12-18T01:00:19;143.63;;;31.90;;
57667;SDS011;43499;52.366;12.912;2022-12-18T01:01:20;134.70;;;33.03;;
57667;SDS011;43499;52.366;12.912;2022-12-18T01:02:21;119.78;;;30.85;;
57667;SDS011;43499;52.366;12.912;2022-12-18T01:03:24;128.55;;;30.23;;
57667;SDS011;43499;52.366;12.912;2022-12-18T01:04:25;156.10;;;31.85;;
57667;SDS011;43499;52.366;12.912;2022-12-18T01:05:26;142.52;;;33.08;;
57667;SDS011;43499;52.366;12.912;2022-12-18T01:06:28;119.57;;;29.50;;
57667;SDS011;43499;52.366;12.912;2022-12-18T01:07:29;149.63;;;34.30;;
57667;SDS011;43499;52.366;12.912;2022-12-18T01:08:30;124.07;;;30.15;;
57667;SDS011;43499;52.366;12.912;2022-12-18T01:09:31;119.85;;;29.25;;
57667;SDS011;43499;52.366;12.912;2022-12-18T01:10:32;147.70;;;33.90;;
57667;SDS011;43499;52.366;12.912;2022-12-18T01:11:33;151.25;;;37.33;;
57667;SDS011;43499;52.366;12.912;2022-12-18T01:12:35;113.68;;;31.00;;
57667;SDS011;43499;52.366;12.912;2022-12-18T01:13:36;105.50;;;26.67;;
57667;SDS011;43499;52.366;12.912;2022-12-18T01:14:37;93.78;;;27.33;;
57667;SDS011;43499;52.366;12.912;2022-12-18T01:15:38;93.40;;;24.98;;
57667;SDS011;43499;52.366;12.912;2022-12-18T01:16:40;100.60;;;26.25;;
57667;SDS011;43499;52.366;12.912;2022-12-18T01:17:41;106.30;;;26.25;;
57667;SDS011;43499;52.366;12.912;2022-12-18T01:18:43;107.45;;;26.70;;
57667;SDS011;43499;52.366;12.912;2022-12-18T01:19:44;112.05;;;28.80;;
57667;SDS011;43499;52.366;12.912;2022-12-18T01:20:45;98.13;;;29.00;;
57667;SDS011;43499;52.366;12.912;2022-12-18T01:21:46;96.85;;;25.58;;
57667;SDS011;43499;52.366;12.912;2022-12-18T01:22:47;90.85;;;25.52;;
57667;SDS011;43499;52.366;12.912;2022-12-18T01:23:52;105.53;;;28.40;;
57667;SDS011;43499;52.366;12.912;2022-12-18T01:24:55;91.63;;;23.80;;
57667;SDS011;43499;52.366;12.912;2022-12-18T01:25:57;95.90;;;26.90;;
57667;SDS011;43499;52.366;12.912;2022-12-18T01:26:58;97.47;;;24.02;;
57667;SDS011;43499;52.366;12.912;2022-12-18T01:27:59;86.13;;;27.48;;
57667;SDS011;43499;52.366;12.912;2022-12-18T01:29:00;88.53;;;24.88;;
57667;SDS011;43499;52.366;12.912;2022-12-18T01:30:02;88.90;;;25.63;;
57667;SDS011;43499;52.366;12.912;2022-12-18T01:31:17;82.40;;;23.17;;
57667;SDS011;43499;52.366;12.912;2022-12-18T01:32:23;82.60;;;23.70;;
57667;SDS011;43499;52.366;12.912;2022-12-18T01:33:24;123.53;;;28.33;;
57667;SDS011;43499;52.366;12.912;2022-12-18T01:34:25;118.80;;;27.25;;
57667;SDS011;43499;52.366;12.912;2022-12-18T01:35:26;127.72;;;29.63;;
57667;SDS011;43499;52.366;12.912;2022-12-18T01:36:29;118.07;;;29.52;;
57667;SDS011;43499;52.366;12.912;2022-12-18T01:37:32;117.43;;;32.03;;
57667;SDS011;43499;52.366;12.912;2022-12-18T01:38:33;104.18;;;27.90;;
57667;SDS011;43499;52.366;12.912;2022-12-18T01:39:34;110.05;;;28.70;;
57667;SDS011;43499;52.366;12.912;2022-12-18T01:40:35;116.82;;;30.52;;
57667;SDS011;43499;52.366;12.912;2022-12-18T01:41:37;84.13;;;23.83;;
57667;SDS011;43499;52.366;12.912;2022-12-18T01:42:57;109.88;;;28.55;;
57667;SDS011;43499;52.366;12.912;2022-12-18T01:43:58;109.20;;;28.60;;
57667;SDS011;43499;52.366;12.912;2022-12-18T01:45:01;135.82;;;31.65;;
57667;SDS011;43499;52.366;12.912;2022-12-18T01:46:12;123.90;;;30.15;;
57667;SDS011;43499;52.366;12.912;2022-12-18T01:47:15;116.88;;;30.77;;
57667;SDS011;43499;52.366;12.912;2022-12-18T01:48:21;109.28;;;30.30;;
57667;SDS011;43499;52.366;12.912;2022-12-18T01:49:22;104.78;;;25.83;;
57667;SDS011;43499;52.366;12.912;2022-12-18T01:50:24;127.07;;;28.42;;
57667;SDS011;43499;52.366;12.912;2022-12-18T01:51:31;113.80;;;27.35;;
57667;SDS011;43499;52.366;12.912;2022-12-18T01:52:32;125.15;;;29.77;;
57667;SDS011;43499;52.366;12.912;2022-12-18T01:53:34;123.93;;;31.23;;
57667;SDS011;43499;52.366;12.912;2022-12-18T01:54:36;132.60;;;30.58;;
57667;SDS011;43499;52.366;12.912;2022-12-18T01:55:40;117.80;;;28.27;;
57667;SDS011;43499;52.366;12.912;2022-12-18T01:56:48;110.55;;;29.20;;
57667;SDS011;43499;52.366;12.912;2022-12-18T01:57:50;111.28;;;28.20;;
57667;SDS011;43499;52.366;12.912;2022-12-18T01:59:04;132.73;;;30.95;;
57667;SDS011;43499;52.366;12.912;2022-12-18T02:00:10;131.10;;;32.00;;
57667;SDS011;43499;52.366;12.912;2022-12-18T02:01:17;107.95;;;26.33;;
57667;SDS011;43499;52.366;12.912;2022-12-18T02:02:19;123.45;;;31.13;;
57667;SDS011;43499;52.366;12.912;2022-12-18T02:03:21;105.25;;;27.13;;
57667;SDS011;43499;52.366;12.912;2022-12-18T02:04:23;96.70;;;23.05;;
57667;SDS011;43499;52.366;12.912;2022-12-18T02:05:33;117.13;;;32.17;;
57667;SDS011;43499;52.366;12.912;2022-12-18T02:06:42;108.07;;;26.90;;
57667;SDS011;43499;52.366;12.912;2022-12-18T02:09:12;115.63;;;25.88;;
57667;SDS011;43499;52.366;12.912;2022-12-18T02:10:24;116.32;;;31.17;;
57667;SDS011;43499;52.366;12.912;2022-12-18T02:11:39;123.60;;;30.30;;
57667;SDS011;43499;52.366;12.912;2022-12-18T02:12:57;117.35;;;29.13;;
57667;SDS011;43499;52.366;12.912;2022-12-18T02:15:56;110.57;;;26.85;;
57667;SDS011;43499;52.366;12.912;2022-12-18T02:17:11;101.80;;;27.42;;
57667;SDS011;43499;52.366;12.912;2022-12-18T02:18:19;116.57;;;27.33;;
57667;SDS011;43499;52.366;12.912;2022-12-18T02:21:13;137.63;;;31.30;;
57667;SDS011;43499;52.366;12.912;2022-12-18T02:22:32;111.65;;;28.48;;
57667;SDS011;43499;52.366;12.912;2022-12-18T02:23:53;107.88;;;27.75;;
57667;SDS011;43499;52.366;12.912;2022-12-18T02:25:25;105.05;;;27.75;;
57667;SDS011;43499;52.366;12.912;2022-12-18T02:26:51;129.57;;;31.52;;
57667;SDS011;43499;52.366;12.912;2022-12-18T02:28:03;100.75;;;29.90;;
57667;SDS011;43499;52.366;12.912;2022-12-18T02:29:10;103.25;;;25.75;;
57667;SDS011;43499;52.366;12.912;2022-12-18T02:30:14;115.10;;;29.90;;
57667;SDS011;43499;52.366;12.912;2022-12-18T02:31:18;109.07;;;26.83;;
57667;SDS011;43499;52.366;12.912;2022-12-18T02:32:27;104.63;;;28.02;;
57667;SDS011;43499;52.366;12.912;2022-12-18T02:33:32;76.35;;;22.25;;
57667;SDS011;43499;52.366;12.912;2022-12-18T02:34:36;119.32;;;28.27;;
57667;SDS011;43499;52.366;12.912;2022-12-18T02:35:40;101.78;;;27.48;;
57667;SDS011;43499;52.366;12.912;2022-12-18T02:36:45;82.20;;;23.42;;
57667;SDS011;43499;52.366;12.912;2022-12-18T02:37:49;100.05;;;27.27;;
57667;SDS011;43499;52.366;12.912;2022-12-18T02:38:51;120.72;;;29.17;;
57667;SDS011;43499;52.366;12.912;2022-12-18T02:39:54;125.20;;;29.40;;
57667;SDS011;43499;52.366;12.912;2022-12-18T02:40:57;128.45;;;29.05;;
57667;SDS011;43499;52.366;12.912;2022-12-18T02:42:01;117.97;;;32.03;;
57667;SDS011;43499;52.366;12.912;2022-12-18T02:43:12;92.88;;;27.42;;
57667;SDS011;43499;52.366;12.912;2022-12-18T02:44:15;99.38;;;26.67;;
57667;SDS011;43499;52.366;12.912;2022-12-18T02:45:17;111.10;;;30.15;;
57667;SDS011;43499;52.366;12.912;2022-12-18T02:46:28;109.75;;;29.83;;
57667;SDS011;43499;52.366;12.912;2022-12-18T02:47:39;121.30;;;28.13;;
57667;SDS011;43499;52.366;12.912;2022-12-18T02:48:43;113.35;;;29.90;;
57667;SDS011;43499;52.366;12.912;2022-12-18T02:51:01;103.20;;;28.55;;
57667;SDS011;43499;52.366;12.912;2022-12-18T02:53:27;100.25;;;26.65;;
57667;SDS011;43499;52.366;12.912;2022-12-18T02:56:20;62.08;;;18.92;;
57667;SDS011;43499;52.366;12.912;2022-12-18T02:57:31;105.47;;;28.05;;
57667;SDS011;43499;52.366;12.912;2022-12-18T02:58:58;107.88;;;25.95;;
57667;SDS011;43499;52.366;12.912;2022-12-18T03:00:18;95.55;;;24.08;;
57667;SDS011;43499;52.366;12.912;2022-12-18T03:01:31;99.45;;;28.40;;
57667;SDS011;43499;52.366;12.912;2022-12-18T03:02:41;95.53;;;28.42;;
57667;SDS011;43499;52.366;12.912;2022-12-18T03:03:55;102.95;;;28.50;;
57667;SDS011;43499;52.366;12.912;2022-12-18T03:05:08;90.55;;;24.98;;
57667;SDS011;43499;52.366;12.912;2022-12-18T03:06:21;91.75;;;26.52;;
57667;SDS011;43499;52.366;12.912;2022-12-18T03:07:33;84.30;;;23.90;;
57667;SDS011;43499;52.366;12.912;2022-12-18T03:08:41;80.70;;;26.17;;
57667;SDS011;43499;52.366;12.912;2022-12-18T03:09:46;90.00;;;23.88;;
57667;SDS011;43499;52.366;12.912;2022-12-18T03:10:58;91.55;;;24.05;;
57667;SDS011;43499;52.366;12.912;2022-12-18T03:12:09;100.45;;;26.67;;
57667;SDS011;43499;52.366;12.912;2022-12-18T03:13:48;73.15;;;23.55;;
57667;SDS011;43499;52.366;12.912;2022-12-18T03:14:59;72.97;;;19.95;;
57667;SDS011;43499;52.366;12.912;2022-12-18T03:16:06;77.68;;;23.73;;
57667;SDS011;43499;52.366;12.912;2022-12-18T03:17:13;85.88;;;22.15;;
57667;SDS011;43499;52.366;12.912;2022-12-18T03:18:35;86.20;;;24.27;;
57667;SDS011;43499;52.366;12.912;2022-12-18T03:19:39;84.35;;;23.67;;
57667;SDS011;43499;52.366;12.912;2022-12-18T03:20:44;93.55;;;26.77;;
57667;SDS011;43499;52.366;12.912;2022-12-18T03:21:51;68.15;;;21.55;;
57667;SDS011;43499;52.366;12.912;2022-12-18T03:22:57;87.53;;;24.48;;
57667;SDS011;43499;52.366;12.912;2022-12-18T03:24:03;88.78;;;23.75;;
57667;SDS011;43499;52.366;12.912;2022-12-18T03:25:09;73.93;;;25.17;;
57667;SDS011;43499;52.366;12.912;2022-12-18T03:26:15;71.97;;;21.52;;
57667;SDS011;43499;52.366;12.912;2022-12-18T03:27:18;68.03;;;21.88;;
57667;SDS011;43499;52.366;12.912;2022-12-18T03:28:24;65.93;;;21.30;;
57667;SDS011;43499;52.366;12.912;2022-12-18T03:29:40;59.85;;;20.05;;
57667;SDS011;43499;52.366;12.912;2022-12-18T03:30:49;63.72;;;19.75;;
57667;SDS011;43499;52.366;12.912;2022-12-18T03:31:58;65.32;;;21.08;;
57667;SDS011;43499;52.366;12.912;2022-12-18T03:33:07;84.10;;;22.70;;
57667;SDS011;43499;52.366;12.912;2022-12-18T03:34:19;71.97;;;21.85;;
57667;SDS011;43499;52.366;12.912;2022-12-18T03:35:26;68.72;;;21.70;;
57667;SDS011;43499;52.366;12.912;2022-12-18T03:36:31;76.32;;;21.88;;
57667;SDS011;43499;52.366;12.912;2022-12-18T03:37:32;70.75;;;22.42;;
57667;SDS011;43499;52.366;12.912;2022-12-18T03:38:34;65.78;;;20.67;;
57667;SDS011;43499;52.366;12.912;2022-12-18T03:39:35;69.75;;;21.38;;
57667;SDS011;43499;52.366;12.912;2022-12-18T03:42:22;57.35;;;18.17;;
57667;SDS011;43499;52.366;12.912;2022-12-18T03:43:39;65.00;;;21.02;;
57667;SDS011;43499;52.366;12.912;2022-12-18T03:46:13;60.70;;;20.00;;
57667;SDS011;43499;52.366;12.912;2022-12-18T03:47:28;60.85;;;19.88;;
57667;SDS011;43499;52.366;12.912;2022-12-18T03:48:41;62.13;;;18.33;;
57667;SDS011;43499;52.366;12.912;2022-12-18T03:49:56;57.45;;;18.20;;
57667;SDS011;43499;52.366;12.912;2022-12-18T03:51:08;55.42;;;17.98;;
57667;SDS011;43499;52.366;12.912;2022-12-18T03:54:37;51.05;;;17.08;;
57667;SDS011;43499;52.366;12.912;2022-12-18T03:55:46;42.45;;;15.15;;
57667;SDS011;43499;52.366;12.912;2022-12-18T03:56:50;50.97;;;17.08;;
57667;SDS011;43499;52.366;12.912;2022-12-18T03:58:00;52.85;;;18.15;;
57667;SDS011;43499;52.366;12.912;2022-12-18T03:59:14;59.67;;;16.85;;
57667;SDS011;43499;52.366;12.912;2022-12-18T04:00:18;49.17;;;17.02;;
57667;SDS011;43499;52.366;12.912;2022-12-18T04:01:35;48.65;;;18.25;;
57667;SDS011;43499;52.366;12.912;2022-12-18T04:02:46;53.83;;;20.70;;
57667;SDS011;43499;52.366;12.912;2022-12-18T04:03:57;57.50;;;18.08;;
57667;SDS011;43499;52.366;12.912;2022-12-18T04:05:02;46.78;;;17.33;;
57667;SDS011;43499;52.366;12.912;2022-12-18T04:06:05;51.17;;;17.75;;
57667;SDS011;43499;52.366;12.912;2022-12-18T04:07:07;44.45;;;16.55;;
57667;SDS011;43499;52.366;12.912;2022-12-18T04:08:12;57.28;;;18.65;;
57667;SDS011;43499;52.366;12.912;2022-12-18T04:09:17;47.10;;;15.95;;
57667;SDS011;43499;52.366;12.912;2022-12-18T04:10:21;60.78;;;19.52;;
57667;SDS011;43499;52.366;12.912;2022-12-18T04:11:23;35.67;;;14.27;;
57667;SDS011;43499;52.366;12.912;2022-12-18T04:12:28;57.83;;;19.30;;
57667;SDS011;43499;52.366;12.912;2022-12-18T04:13:34;51.88;;;15.98;;
57667;SDS011;43499;52.366;12.912;2022-12-18T04:15:42;55.38;;;18.02;;
57667;SDS011;43499;52.366;12.912;2022-12-18T04:16:47;52.35;;;17.42;;
57667;SDS011;43499;52.366;12.912;2022-12-18T04:17:51;46.00;;;17.42;;
57667;SDS011;43499;52.366;12.912;2022-12-18T04:18:56;49.00;;;17.30;;
57667;SDS011;43499;52.366;12.912;2022-12-18T04:19:59;44.47;;;13.50;;
57667;SDS011;43499;52.366;12.912;2022-12-18T04:21:00;53.72;;;17.38;;
57667;SDS011;43499;52.366;12.912;2022-12-18T04:22:01;48.13;;;18.20;;
57667;SDS011;43499;52.366;12.912;2022-12-18T04:23:05;49.28;;;15.73;;
57667;SDS011;43499;52.366;12.912;2022-12-18T04:24:07;49.90;;;16.05;;
57667;SDS011;43499;52.366;12.912;2022-12-18T04:25:11;47.60;;;16.60;;
57667;SDS011;43499;52.366;12.912;2022-12-18T04:26:17;50.72;;;18.05;;
57667;SDS011;43499;52.366;12.912;2022-12-18T04:27:28;54.85;;;17.50;;
57667;SDS011;43499;52.366;12.912;2022-12-18T04:28:29;48.20;;;16.65;;
57667;SDS011;43499;52.366;12.912;2022-12-18T04:29:30;56.17;;;17.40;;
57667;SDS011;43499;52.366;12.912;2022-12-18T04:30:32;41.95;;;14.65;;
57667;SDS011;43499;52.366;12.912;2022-12-18T04:31:33;47.60;;;16.73;;
57667;SDS011;43499;52.366;12.912;2022-12-18T04:32:34;43.13;;;14.95;;
57667;SDS011;43499;52.366;12.912;2022-12-18T04:33:35;47.17;;;18.20;;
57667;SDS011;43499;52.366;12.912;2022-12-18T04:34:37;42.80;;;16.17;;
57667;SDS011;43499;52.366;12.912;2022-12-18T04:35:39;51.03;;;17.20;;
57667;SDS011;43499;52.366;12.912;2022-12-18T04:36:42;43.58;;;14.27;;
57667;SDS011;43499;52.366;12.912;2022-12-18T04:37:43;51.33;;;18.13;;
57667;SDS011;43499;52.366;12.912;2022-12-18T04:38:45;55.00;;;19.38;;
57667;SDS011;43499;52.366;12.912;2022-12-18T04:39:49;43.60;;;18.15;;
57667;SDS011;43499;52.366;12.912;2022-12-18T04:40:57;54.80;;;18.23;;
57667;SDS011;43499;52.366;12.912;2022-12-18T04:42:01;43.42;;;15.68;;
57667;SDS011;43499;52.366;12.912;2022-12-18T04:43:03;46.33;;;14.40;;
57667;SDS011;43499;52.366;12.912;2022-12-18T04:44:04;52.70;;;17.52;;
57667;SDS011;43499;52.366;12.912;2022-12-18T04:45:05;43.85;;;16.48;;
57667;SDS011;43499;52.366;12.912;2022-12-18T04:46:08;43.58;;;17.13;;
57667;SDS011;43499;52.366;12.912;2022-12-18T04:47:09;55.28;;;19.80;;
57667;SDS011;43499;52.366;12.912;2022-12-18T04:48:10;55.00;;;19.02;;
57667;SDS011;43499;52.366;12.912;2022-12-18T04:49:11;48.92;;;17.25;;
57667;SDS011;43499;52.366;12.912;2022-12-18T04:50:12;51.88;;;17.30;;
57667;SDS011;43499;52.366;12.912;2022-12-18T04:51:13;43.35;;;17.17;;
57667;SDS011;43499;52.366;12.912;2022-12-18T04:52:14;50.75;;;19.10;;
57667;SDS011;43499;52.366;12.912;2022-12-18T04:53:15;49.45;;;18.67;;
57667;SDS011;43499;52.366;12.912;2022-12-18T04:54:16;54.38;;;18.83;;
57667;SDS011;43499;52.366;12.912;2022-12-18T04:55:17;52.40;;;19.15;;
57667;SDS011;43499;52.366;12.912;2022-12-18T04:56:18;43.03;;;16.48;;
57667;SDS011;43499;52.366;12.912;2022-12-18T04:57:19;57.90;;;19.58;;
57667;SDS011;43499;52.366;12.912;2022-12-18T04:58:20;56.88;;;18.88;;
57667;SDS011;43499;52.366;12.912;2022-12-18T04:59:22;47.28;;;17.50;;
57667;SDS011;43499;52.366;12.912;2022-12-18T05:00:23;38.35;;;14.95;;
57667;SDS011;43499;52.366;12.912;2022-12-18T05:01:24;50.38;;;18.83;;
57667;SDS011;43499;52.366;12.912;2022-12-18T05:02:25;58.78;;;17.85;;
57667;SDS011;43499;52.366;12.912;2022-12-18T05:03:27;44.72;;;16.33;;
57667;SDS011;43499;52.366;12.912;2022-12-18T05:04:28;53.03;;;17.63;;
57667;SDS011;43499;52.366;12.912;2022-12-18T05:05:29;56.25;;;17.48;;
57667;SDS011;43499;52.366;12.912;2022-12-18T05:06:30;44.53;;;16.15;;
57667;SDS011;43499;52.366;12.912;2022-12-18T05:07:31;54.30;;;17.08;;
57667;SDS011;43499;52.366;12.912;2022-12-18T05:08:33;41.03;;;14.88;;
57667;SDS011;43499;52.366;12.912;2022-12-18T05:09:34;54.83;;;18.95;;
57667;SDS011;43499;52.366;12.912;2022-12-18T05:10:35;47.20;;;15.32;;
57667;SDS011;43499;52.366;12.912;2022-12-18T05:11:36;44.08;;;17.20;;
57667;SDS011;43499;52.366;12.912;2022-12-18T05:12:37;58.92;;;19.23;;
57667;SDS011;43499;52.366;12.912;2022-12-18T05:13:58;53.47;;;18.00;;
57667;SDS011;43499;52.366;12.912;2022-12-18T05:14:59;57.55;;;17.45;;
57667;SDS011;43499;52.366;12.912;2022-12-18T05:16:01;49.75;;;16.15;;
57667;SDS011;43499;52.366;12.912;2022-12-18T05:17:03;49.88;;;17.45;;
57667;SDS011;43499;52.366;12.912;2022-12-18T05:18:04;39.53;;;14.20;;
57667;SDS011;43499;52.366;12.912;2022-12-18T05:19:05;42.42;;;15.10;;
57667;SDS011;43499;52.366;12.912;2022-12-18T05:20:06;39.25;;;13.30;;
57667;SDS011;43499;52.366;12.912;2022-12-18T05:21:07;53.25;;;17.95;;
57667;SDS011;43499;52.366;12.912;2022-12-18T05:22:08;58.42;;;19.67;;
57667;SDS011;43499;52.366;12.912;2022-12-18T05:23:09;56.20;;;17.95;;
57667;SDS011;43499;52.366;12.912;2022-12-18T05:24:10;45.47;;;16.92;;
57667;SDS011;43499;52.366;12.912;2022-12-18T05:25:12;46.83;;;15.73;;
57667;SDS011;43499;52.366;12.912;2022-12-18T05:26:15;45.20;;;16.50;;
57667;SDS011;43499;52.366;12.912;2022-12-18T05:27:17;50.13;;;18.77;;
57667;SDS011;43499;52.366;12.912;2022-12-18T05:28:21;47.10;;;16.77;;
57667;SDS011;43499;52.366;12.912;2022-12-18T05:29:23;43.20;;;16.73;;
57667;SDS011;43499;52.366;12.912;2022-12-18T05:30:24;46.95;;;16.45;;
57667;SDS011;43499;52.366;12.912;2022-12-18T05:31:25;45.47;;;14.57;;
57667;SDS011;43499;52.366;12.912;2022-12-18T05:32:26;46.35;;;17.10;;
57667;SDS011;43499;52.366;12.912;2022-12-18T05:33:31;46.70;;;16.70;;
57667;SDS011;43499;52.366;12.912;2022-12-18T05:34:34;44.42;;;15.65;;
57667;SDS011;43499;52.366;12.912;2022-12-18T05:35:35;49.10;;;17.63;;
57667;SDS011;43499;52.366;12.912;2022-12-18T05:36:36;51.97;;;17.75;;
57667;SDS011;43499;52.366;12.912;2022-12-18T05:37:37;40.05;;;14.27;;
57667;SDS011;43499;52.366;12.912;2022-12-18T05:38:38;51.10;;;16.42;;
57667;SDS011;43499;52.366;12.912;2022-12-18T05:39:40;41.65;;;15.73;;
57667;SDS011;43499;52.366;12.912;2022-12-18T05:40:41;49.78;;;17.35;;
57667;SDS011;43499;52.366;12.912;2022-12-18T05:41:44;45.13;;;14.77;;
57667;SDS011;43499;52.366;12.912;2022-12-18T05:42:45;52.83;;;17.95;;
57667;SDS011;43499;52.366;12.912;2022-12-18T05:43:46;44.22;;;17.63;;
57667;SDS011;43499;52.366;12.912;2022-12-18T05:44:47;47.90;;;16.33;;
57667;SDS011;43499;52.366;12.912;2022-12-18T05:45:48;55.55;;;18.13;;
57667;SDS011;43499;52.366;12.912;2022-12-18T05:46:50;61.10;;;18.10;;
57667;SDS011;43499;52.366;12.912;2022-12-18T05:47:51;50.78;;;19.48;;
57667;SDS011;43499;52.366;12.912;2022-12-18T05:48:52;46.20;;;17.08;;
57667;SDS011;43499;52.366;12.912;2022-12-18T05:49:53;45.58;;;15.80;;
57667;SDS011;43499;52.366;12.912;2022-12-18T05:50:54;50.58;;;16.85;;
57667;SDS011;43499;52.366;12.912;2022-12-18T05:51:55;61.20;;;18.38;;
57667;SDS011;43499;52.366;12.912;2022-12-18T05:52:56;55.75;;;18.73;;
57667;SDS011;43499;52.366;12.912;2022-12-18T05:53:57;59.70;;;20.05;;
57667;SDS011;43499;52.366;12.912;2022-12-18T05:54:58;53.63;;;17.30;;
57667;SDS011;43499;52.366;12.912;2022-12-18T05:56:00;62.05;;;19.75;;
57667;SDS011;43499;52.366;12.912;2022-12-18T05:57:02;50.75;;;16.90;;
57667;SDS011;43499;52.366;12.912;2022-12-18T05:58:04;53.67;;;18.00;;
57667;SDS011;43499;52.366;12.912;2022-12-18T05:59:06;64.90;;;20.70;;
57667;SDS011;43499;52.366;12.912;2022-12-18T06:00:07;55.92;;;19.60;;
57667;SDS011;43499;52.366;12.912;2022-12-18T06:01:14;58.50;;;18.38;;
57667;SDS011;43499;52.366;12.912;2022-12-18T06:02:17;62.45;;;19.40;;
57667;SDS011;43499;52.366;12.912;2022-12-18T06:03:18;72.63;;;20.88;;
57667;SDS011;43499;52.366;12.912;2022-12-18T06:04:19;51.03;;;17.45;;
57667;SDS011;43499;52.366;12.912;2022-12-18T06:05:20;57.13;;;20.92;;
57667;SDS011;43499;52.366;12.912;2022-12-18T06:06:23;57.45;;;20.08;;
57667;SDS011;43499;52.366;12.912;2022-12-18T06:07:25;68.07;;;19.02;;
57667;SDS011;43499;52.366;12.912;2022-12-18T06:08:27;56.92;;;18.65;;
57667;SDS011;43499;52.366;12.912;2022-12-18T06:09:28;57.83;;;19.40;;
57667;SDS011;43499;52.366;12.912;2022-12-18T06:10:30;64.68;;;19.80;;
57667;SDS011;43499;52.366;12.912;2022-12-18T06:11:31;72.70;;;21.17;;
57667;SDS011;43499;52.366;12.912;2022-12-18T06:12:32;63.53;;;18.73;;
57667;SDS011;43499;52.366;12.912;2022-12-18T06:13:34;60.75;;;20.20;;
57667;SDS011;43499;52.366;12.912;2022-12-18T06:14:36;60.10;;;19.98;;
57667;SDS011;43499;52.366;12.912;2022-12-18T06:15:37;62.85;;;20.02;;
57667;SDS011;43499;52.366;12.912;2022-12-18T06:16:38;61.55;;;19.52;;
57667;SDS011;43499;52.366;12.912;2022-12-18T06:17:39;61.75;;;20.02;;
57667;SDS011;43499;52.366;12.912;2022-12-18T06:18:40;61.58;;;20.98;;
57667;SDS011;43499;52.366;12.912;2022-12-18T06:19:42;71.13;;;19.52;;
57667;SDS011;43499;52.366;12.912;2022-12-18T06:20:43;47.45;;;17.58;;
57667;SDS011;43499;52.366;12.912;2022-12-18T06:21:44;70.85;;;20.13;;
57667;SDS011;43499;52.366;12.912;2022-12-18T06:22:45;68.95;;;20.40;;
57667;SDS011;43499;52.366;12.912;2022-12-18T06:23:46;60.03;;;17.83;;
57667;SDS011;43499;52.366;12.912;2022-12-18T06:24:47;59.85;;;20.23;;